Aeroporto :
LOGIN :

Iscrizione | Disclaimer

   EN    FR    IT 

 










Sommario :    VFR   VFR Marginale   IFR   IFR Intensivo   IFR Molto Intensivo
Visibilità : 
Base nubi : 
>= 8 km
>= 3000ft
5 / 8 km
1000 / 3000 ft
1500m / 5 km
500 / 1000 ft
800 / 1500m
200 / 500 ft
< 800m
< 200 ft
Simboli :   Temporali  Nebbia  Neve Forte  Precipitazioni Forti  Vento > 20 kt
SIGMETs :   Varie  Temporali  Ghiacco  Turbolenza  Onda orograficha  Ceneri Vulcaniche






- Altitudine del aeroporto : 3 ft
- Codice IATA : LWR


EHLW - Leuuwarden Air Base

ULTIMO METAR :
  • 131225Z AUTO 25012KT 9999 FEW024 SCT028 BKN046 10/06 Q0996 BLU 26013KT 9999 SCT022 TEMPO 24015G25KT 4000 SHRA FEW012 SCT018CB BKN022

METARs OBSOLETI :
  • 131155Z AUTO 26012KT 230V290 9999 SCT180 09/05 Q0996 BLU 26013KT 9999 SCT022 TEMPO 24015G25KT 4000 SHRA FEW012 SCT018CB BKN022
  • 131125Z AUTO 26014KT 230V290 9999 NCD 10/06 Q0996 BLU 26013KT 9999 SCT022 TEMPO 24015G25KT 4000 SHRA FEW012 SCT018CB BKN022
  • 131115Z AUTO 26015KT 230V290 9999 FEW022 SCT031 10/06 Q0996 BLU 26013KT 9999 SCT022 TEMPO 24015G25KT 4000 SHRA FEW012 SCT018CB BKN022
  • 131105Z AUTO 26013KT 9999 SCT022 SCT027 BKN031 10/06 Q0996 WHT 26013KT 9999 SCT022 TEMPO 24015G25KT 4000 SHRA FEW012 SCT018CB BKN022
  • 131055Z AUTO 26013KT 9999 FEW025 SCT210 10/06 Q0996 BLU 24008KT 9999 SCT025 TEMPO 24015G25KT 4000 SHRA FEW012 SCT018CB BKN022
  • 131042Z AUTO 26012KT 9999 SCT023 10/06 Q0996 WHT 24008KT 9999 SCT025 TEMPO 24015G25KT 4000 SHRA FEW012 SCT018CB BKN022
  • 131030Z AUTO 26011KT 9999 NCD 09/06 Q0995 BLU 24008KT 9999 SCT025 TEMPO 24015G25KT 4000 SHRA FEW012 SCT018CB BKN022
  • 131025Z AUTO 26012KT 9999 FEW039 SCT050 09/06 Q0995 BLU 24008KT 9999 SCT025 BKN040 TEMPO 24015G25KT 4000 SHRA FEW012 SCT018CB BKN022
  • 130955Z AUTO 25010KT 9999 FEW025 SCT040 BKN045 09/06 Q0995 BLU 24008KT 9999 SCT025 BKN040 TEMPO 24015G25KT 4000 SHRA FEW012 SCT018CB BKN022
  • 130925Z AUTO 21008KT 9999 NCD 08/07 Q0995 BLU 21008KT 9999 SCT025 BKN040 TEMPO 24015G25KT 4000 SHRA FEW012 SCT018CB BKN022

TAF COR TAF EHLW
Valido dal 13 a 10 ore il 13 a 22 ore UTC


130955Z 1310/1322 24012KT 9999 SCT020 BKN040
TEMPO 1310/1322 4500 SHRA FEW010 SCT018CB BKN025
PROB30
TEMPO 1310/1314 20016G28KT 3000 TSRAGS SCT008 SCT015CB BKN020
BECMG 1315/1318 19006KT



MetMap, La meteo Aeronautica in un colpo d'occhio ! - Copyright ORBIFLY Dicembre 2007 - Disclaimer

ORBIFLY MET'MAP TEAM :

Programmazione e sviluppo : Alexandra Zaïnal
Concezione e sviluppo : Baudouin d'Aumeries
Co-Programmazione e sviluppo : Marc-Olivier Méhu
Supporto tecnico e logistico : Manuel Goepfert
Aiuto per la traduzione : Arnaldo La Scala

Contatto : metmap@orbifly.com




FONTI E CREDITI :

   NOAA